Bailey Lakes, Ohio
Current Conditions -  °F | °C
As of 6:52 PM on Sunday 21 Dec 2014 (Local Time) from KMFD Reporting Station
Clear Clear  
Wind Chill: 18°   Ceiling: Unl
Heat Index: 26°   Visibility: 8mi
Dew Point: 21°   Wind: 7mph
Humidity: 81%   Direction: 110°ESE
Pressure: 30.2"   Gusts: NA
Location:  40.8738°N, 82.3197°W
Report Text: KMFD 212352Z 11006KT 8SM CLR M03/M06 A3020 RMK AO2 SLP243 T10331061 10017 21033 55001
Loading
Personal Weather Stations






























Interactive Weather Map New forecast layout! Learn more

10-Day Weather Forecast

Advertisements
Track Severe Weather on mobile